sensor_id;sensor_type;location;lat;lon;timestamp;pressure;altitude;pressure_sealevel;temperature;humidity
11808;BME280;5961;42.640;23.380;2022-11-20T00:00:05;93376.75;;;14.66;100.00
11808;BME280;5961;42.640;23.380;2022-11-20T00:02:32;93368.31;;;14.61;100.00
11808;BME280;5961;42.640;23.380;2022-11-20T00:04:59;93348.81;;;14.60;100.00
11808;BME280;5961;42.640;23.380;2022-11-20T00:07:27;93387.00;;;14.57;100.00
11808;BME280;5961;42.640;23.380;2022-11-20T00:09:53;93383.56;;;14.60;100.00
11808;BME280;5961;42.640;23.380;2022-11-20T00:12:20;93366.03;;;14.59;100.00
11808;BME280;5961;42.640;23.380;2022-11-20T00:14:47;93356.00;;;14.49;100.00
11808;BME280;5961;42.640;23.380;2022-11-20T00:17:13;93356.06;;;14.56;100.00
11808;BME280;5961;42.640;23.380;2022-11-20T00:19:40;93390.44;;;14.58;100.00
11808;BME280;5961;42.640;23.380;2022-11-20T00:22:06;93354.56;;;14.59;100.00
11808;BME280;5961;42.640;23.380;2022-11-20T00:24:34;93362.56;;;14.59;100.00
11808;BME280;5961;42.640;23.380;2022-11-20T00:27:01;93367.94;;;14.62;100.00
11808;BME280;5961;42.640;23.380;2022-11-20T00:29:28;93356.09;;;14.63;100.00
11808;BME280;5961;42.640;23.380;2022-11-20T00:31:54;93351.94;;;14.69;98.88
11808;BME280;5961;42.640;23.380;2022-11-20T00:34:21;93338.22;;;14.74;96.16
11808;BME280;5961;42.640;23.380;2022-11-20T00:36:48;93350.50;;;14.86;96.47
11808;BME280;5961;42.640;23.380;2022-11-20T00:39:14;93363.13;;;14.96;96.22
11808;BME280;5961;42.640;23.380;2022-11-20T00:41:42;93350.19;;;14.98;94.97
11808;BME280;5961;42.640;23.380;2022-11-20T00:44:09;93360.13;;;15.08;93.40
11808;BME280;5961;42.640;23.380;2022-11-20T00:46:36;93373.94;;;15.14;93.41
11808;BME280;5961;42.640;23.380;2022-11-20T00:49:03;93360.19;;;15.19;93.42
11808;BME280;5961;42.640;23.380;2022-11-20T00:51:29;93369.38;;;15.21;92.05
11808;BME280;5961;42.640;23.380;2022-11-20T00:53:57;93388.53;;;15.30;91.84
11808;BME280;5961;42.640;23.380;2022-11-20T00:56:25;93385.06;;;15.23;90.40
11808;BME280;5961;42.640;23.380;2022-11-20T00:58:53;93395.47;;;15.42;89.42
11808;BME280;5961;42.640;23.380;2022-11-20T01:01:22;93377.91;;;15.48;88.81
11808;BME280;5961;42.640;23.380;2022-11-20T01:03:50;93390.16;;;15.49;89.87
11808;BME280;5961;42.640;23.380;2022-11-20T01:06:18;93361.09;;;15.55;88.13
11808;BME280;5961;42.640;23.380;2022-11-20T01:08:46;93372.59;;;15.55;88.00
11808;BME280;5961;42.640;23.380;2022-11-20T01:11:15;93356.50;;;15.62;86.68
11808;BME280;5961;42.640;23.380;2022-11-20T01:13:43;93355.00;;;15.68;86.63
11808;BME280;5961;42.640;23.380;2022-11-20T01:16:13;93369.94;;;15.73;85.97
11808;BME280;5961;42.640;23.380;2022-11-20T01:18:41;93369.56;;;15.78;84.82
11808;BME280;5961;42.640;23.380;2022-11-20T01:21:10;93364.22;;;15.81;84.96
11808;BME280;5961;42.640;23.380;2022-11-20T01:23:39;93356.56;;;15.87;85.02
11808;BME280;5961;42.640;23.380;2022-11-20T01:26:08;93345.06;;;15.86;85.05
11808;BME280;5961;42.640;23.380;2022-11-20T01:28:36;93310.63;;;15.64;85.13
11808;BME280;5961;42.640;23.380;2022-11-20T01:31:12;93328.63;;;15.91;85.07
11808;BME280;5961;42.640;23.380;2022-11-20T01:33:39;93330.53;;;15.91;84.58
11808;BME280;5961;42.640;23.380;2022-11-20T01:36:07;93336.66;;;15.99;84.06
11808;BME280;5961;42.640;23.380;2022-11-20T01:38:34;93307.59;;;15.97;84.71
11808;BME280;5961;42.640;23.380;2022-11-20T01:41:01;93310.63;;;16.03;84.77
11808;BME280;5961;42.640;23.380;2022-11-20T01:43:28;93319.06;;;16.01;85.28
11808;BME280;5961;42.640;23.380;2022-11-20T01:46:00;93327.47;;;16.00;84.92
11808;BME280;5961;42.640;23.380;2022-11-20T01:48:33;93299.53;;;15.93;84.85
11808;BME280;5961;42.640;23.380;2022-11-20T01:51:03;93284.25;;;15.80;85.55
11808;BME280;5961;42.640;23.380;2022-11-20T01:53:32;93304.53;;;15.95;85.68
11808;BME280;5961;42.640;23.380;2022-11-20T01:56:02;93284.63;;;15.85;85.94
11808;BME280;5961;42.640;23.380;2022-11-20T01:58:33;93301.81;;;15.77;86.94
11808;BME280;5961;42.640;23.380;2022-11-20T02:01:03;93316.75;;;15.82;86.50
11808;BME280;5961;42.640;23.380;2022-11-20T02:03:31;93324.41;;;15.80;86.73
11808;BME280;5961;42.640;23.380;2022-11-20T02:06:04;93305.66;;;15.76;85.52
11808;BME280;5961;42.640;23.380;2022-11-20T02:08:32;93321.75;;;15.80;84.72
11808;BME280;5961;42.640;23.380;2022-11-20T02:10:59;93323.66;;;15.79;85.11
11808;BME280;5961;42.640;23.380;2022-11-20T02:13:26;93358.09;;;15.84;84.85
11808;BME280;5961;42.640;23.380;2022-11-20T02:16:17;93338.59;;;15.91;82.33
11808;BME280;5961;42.640;23.380;2022-11-20T02:18:46;93343.56;;;16.03;78.23
11808;BME280;5961;42.640;23.380;2022-11-20T02:21:21;93342.03;;;16.13;78.95
11808;BME280;5961;42.640;23.380;2022-11-20T02:24:02;93334.38;;;16.22;79.20
11808;BME280;5961;42.640;23.380;2022-11-20T02:26:31;93339.72;;;16.29;79.52
11808;BME280;5961;42.640;23.380;2022-11-20T02:29:00;93332.81;;;16.42;75.83
11808;BME280;5961;42.640;23.380;2022-11-20T02:31:28;93334.34;;;16.50;75.97
11808;BME280;5961;42.640;23.380;2022-11-20T02:33:55;93339.72;;;16.57;75.45
11808;BME280;5961;42.640;23.380;2022-11-20T02:36:23;93342.00;;;16.76;73.36
11808;BME280;5961;42.640;23.380;2022-11-20T02:38:50;93335.81;;;16.93;72.89
11808;BME280;5961;42.640;23.380;2022-11-20T02:41:18;93341.88;;;17.12;71.79
11808;BME280;5961;42.640;23.380;2022-11-20T02:43:45;93303.59;;;17.00;71.92
11808;BME280;5961;42.640;23.380;2022-11-20T02:46:12;93348.69;;;17.37;70.63
11808;BME280;5961;42.640;23.380;2022-11-20T02:48:38;93358.25;;;17.42;70.64
11808;BME280;5961;42.640;23.380;2022-11-20T02:51:05;93350.97;;;17.46;70.81
11808;BME280;5961;42.640;23.380;2022-11-20T02:53:32;93363.59;;;17.52;70.60
11808;BME280;5961;42.640;23.380;2022-11-20T02:55:58;93366.28;;;17.56;70.78
11808;BME280;5961;42.640;23.380;2022-11-20T02:58:26;93347.34;;;17.77;70.10
11808;BME280;5961;42.640;23.380;2022-11-20T03:00:53;93362.28;;;17.85;69.63
11808;BME280;5961;42.640;23.380;2022-11-20T03:03:20;93353.38;;;17.95;69.98
11808;BME280;5961;42.640;23.380;2022-11-20T03:05:46;93382.88;;;18.06;69.31
11808;BME280;5961;42.640;23.380;2022-11-20T03:08:13;93408.22;;;18.08;69.51
11808;BME280;5961;42.640;23.380;2022-11-20T03:10:40;93379.00;;;18.10;69.62
11808;BME280;5961;42.640;23.380;2022-11-20T03:13:06;93384.38;;;18.10;69.43
11808;BME280;5961;42.640;23.380;2022-11-20T03:15:35;93378.22;;;18.14;69.52
11808;BME280;5961;42.640;23.380;2022-11-20T03:18:03;93386.28;;;18.14;69.67
11808;BME280;5961;42.640;23.380;2022-11-20T03:20:29;93370.16;;;18.14;69.52
11808;BME280;5961;42.640;23.380;2022-11-20T03:22:56;93392.84;;;18.13;69.89
11808;BME280;5961;42.640;23.380;2022-11-20T03:25:23;93394.34;;;18.14;70.17
11808;BME280;5961;42.640;23.380;2022-11-20T03:27:50;93348.41;;;17.94;70.01
11808;BME280;5961;42.640;23.380;2022-11-20T03:30:17;93375.94;;;18.08;69.89
11808;BME280;5961;42.640;23.380;2022-11-20T03:32:45;93413.97;;;18.10;69.72
11808;BME280;5961;42.640;23.380;2022-11-20T03:35:12;93375.97;;;18.05;69.39
11808;BME280;5961;42.640;23.380;2022-11-20T03:37:38;93391.28;;;18.12;69.64
11808;BME280;5961;42.640;23.380;2022-11-20T03:40:06;93389.75;;;18.10;69.35
11808;BME280;5961;42.640;23.380;2022-11-20T03:42:33;93399.72;;;18.14;69.17
11808;BME280;5961;42.640;23.380;2022-11-20T03:45:12;93383.59;;;18.14;68.63
11808;BME280;5961;42.640;23.380;2022-11-20T03:47:39;93423.53;;;18.19;68.76
11808;BME280;5961;42.640;23.380;2022-11-20T03:50:08;93402.75;;;18.19;69.11
11808;BME280;5961;42.640;23.380;2022-11-20T03:52:34;93413.13;;;18.21;68.79
11808;BME280;5961;42.640;23.380;2022-11-20T03:55:02;93393.91;;;18.22;68.45
11808;BME280;5961;42.640;23.380;2022-11-20T03:57:28;93395.09;;;18.21;68.36
11808;BME280;5961;42.640;23.380;2022-11-20T03:59:55;93418.09;;;18.26;68.08
11808;BME280;5961;42.640;23.380;2022-11-20T04:02:22;93401.19;;;18.25;68.21
11808;BME280;5961;42.640;23.380;2022-11-20T04:04:48;93444.22;;;18.25;67.96
11808;BME280;5961;42.640;23.380;2022-11-20T04:07:16;93393.47;;;18.31;67.61
11808;BME280;5961;42.640;23.380;2022-11-20T04:09:43;93401.91;;;18.33;67.58
11808;BME280;5961;42.640;23.380;2022-11-20T04:12:10;93401.13;;;18.32;67.31
11808;BME280;5961;42.640;23.380;2022-11-20T04:14:37;93420.00;;;18.29;67.86
11808;BME280;5961;42.640;23.380;2022-11-20T04:17:03;93395.41;;;18.27;67.65
11808;BME280;5961;42.640;23.380;2022-11-20T04:19:30;93417.28;;;18.32;68.00
11808;BME280;5961;42.640;23.380;2022-11-20T04:21:57;93414.59;;;18.29;67.00
11808;BME280;5961;42.640;23.380;2022-11-20T04:24:26;93413.09;;;18.28;67.60
11808;BME280;5961;42.640;23.380;2022-11-20T04:26:52;93417.31;;;18.25;67.89
11808;BME280;5961;42.640;23.380;2022-11-20T04:29:19;93435.75;;;18.27;68.10
11808;BME280;5961;42.640;23.380;2022-11-20T04:31:46;93437.72;;;18.19;67.88
11808;BME280;5961;42.640;23.380;2022-11-20T04:34:12;93451.94;;;18.20;68.29
11808;BME280;5961;42.640;23.380;2022-11-20T04:36:39;93425.84;;;18.13;69.20
11808;BME280;5961;42.640;23.380;2022-11-20T04:39:06;93423.56;;;18.12;69.25
11808;BME280;5961;42.640;23.380;2022-11-20T04:41:35;93423.56;;;18.12;69.88
11808;BME280;5961;42.640;23.380;2022-11-20T04:44:05;93432.06;;;18.06;70.55
11808;BME280;5961;42.640;23.380;2022-11-20T04:46:34;93414.41;;;17.98;71.08
11808;BME280;5961;42.640;23.380;2022-11-20T04:49:01;93407.13;;;17.99;71.39
11808;BME280;5961;42.640;23.380;2022-11-20T04:51:27;93411.38;;;17.93;71.99
11808;BME280;5961;42.640;23.380;2022-11-20T04:53:54;93417.19;;;17.84;72.61
11808;BME280;5961;42.640;23.380;2022-11-20T04:56:21;93384.63;;;17.68;72.45
11808;BME280;5961;42.640;23.380;2022-11-20T04:58:49;93399.16;;;17.81;72.50
11808;BME280;5961;42.640;23.380;2022-11-20T05:01:18;93403.00;;;17.80;72.21
11808;BME280;5961;42.640;23.380;2022-11-20T05:03:45;93360.50;;;17.50;72.56
11808;BME280;5961;42.640;23.380;2022-11-20T05:06:13;93402.63;;;17.78;72.59
11808;BME280;5961;42.640;23.380;2022-11-20T05:08:41;93398.41;;;17.77;72.96
11808;BME280;5961;42.640;23.380;2022-11-20T05:11:09;93405.00;;;17.66;74.10
11808;BME280;5961;42.640;23.380;2022-11-20T05:13:36;93408.44;;;17.66;74.57
11808;BME280;5961;42.640;23.380;2022-11-20T05:16:07;93400.03;;;17.61;75.25
11808;BME280;5961;42.640;23.380;2022-11-20T05:18:34;93383.50;;;17.62;76.25
11808;BME280;5961;42.640;23.380;2022-11-20T05:21:01;93387.00;;;17.52;79.15
11808;BME280;5961;42.640;23.380;2022-11-20T05:23:31;93379.31;;;17.50;79.88
11808;BME280;5961;42.640;23.380;2022-11-20T05:25:58;93367.88;;;17.39;81.96
11808;BME280;5961;42.640;23.380;2022-11-20T05:28:26;93364.84;;;17.27;84.36
11808;BME280;5961;42.640;23.380;2022-11-20T05:30:53;93357.22;;;17.11;84.95
11808;BME280;5961;42.640;23.380;2022-11-20T05:33:21;93355.72;;;16.99;86.51
11808;BME280;5961;42.640;23.380;2022-11-20T05:35:48;93347.38;;;16.73;87.48
11808;BME280;5961;42.640;23.380;2022-11-20T05:38:15;93355.00;;;16.78;87.79
11808;BME280;5961;42.640;23.380;2022-11-20T05:40:42;93356.19;;;16.59;88.92
11808;BME280;5961;42.640;23.380;2022-11-20T05:43:09;93334.38;;;16.43;89.70
11808;BME280;5961;42.640;23.380;2022-11-20T05:45:35;93343.94;;;16.37;89.71
11808;BME280;5961;42.640;23.380;2022-11-20T05:48:02;93330.13;;;16.35;90.26
11808;BME280;5961;42.640;23.380;2022-11-20T05:50:30;93326.72;;;16.24;90.60
11808;BME280;5961;42.640;23.380;2022-11-20T05:52:58;93288.06;;;15.97;90.67
11808;BME280;5961;42.640;23.380;2022-11-20T05:55:24;93288.06;;;16.04;90.47
11808;BME280;5961;42.640;23.380;2022-11-20T05:57:52;93320.59;;;16.16;90.51
11808;BME280;5961;42.640;23.380;2022-11-20T06:00:19;93325.19;;;16.09;91.28
11808;BME280;5961;42.640;23.380;2022-11-20T06:02:46;93328.25;;;16.11;92.25
11808;BME280;5961;42.640;23.380;2022-11-20T06:05:13;93325.97;;;16.09;92.21
11808;BME280;5961;42.640;23.380;2022-11-20T06:07:41;93333.63;;;16.04;91.74
11808;BME280;5961;42.640;23.380;2022-11-20T06:10:08;93346.63;;;16.02;92.07
11808;BME280;5961;42.640;23.380;2022-11-20T06:12:35;93353.53;;;16.06;92.11
11808;BME280;5961;42.640;23.380;2022-11-20T06:15:01;93342.03;;;16.06;91.83
11808;BME280;5961;42.640;23.380;2022-11-20T06:17:28;93354.28;;;16.07;91.21
11808;BME280;5961;42.640;23.380;2022-11-20T06:19:55;93354.69;;;16.12;90.83
11808;BME280;5961;42.640;23.380;2022-11-20T06:22:21;93358.88;;;16.17;90.78
11808;BME280;5961;42.640;23.380;2022-11-20T06:24:50;93362.31;;;16.14;90.47
11808;BME280;5961;42.640;23.380;2022-11-20T06:27:16;93373.81;;;16.18;90.07
11808;BME280;5961;42.640;23.380;2022-11-20T06:29:43;93376.09;;;16.23;89.78
11808;BME280;5961;42.640;23.380;2022-11-20T06:32:10;93368.47;;;16.28;89.37
11808;BME280;5961;42.640;23.380;2022-11-20T06:34:36;93378.03;;;16.33;88.95
11808;BME280;5961;42.640;23.380;2022-11-20T06:37:03;93369.59;;;16.38;88.54
11808;BME280;5961;42.640;23.380;2022-11-20T06:39:29;93375.38;;;16.40;88.28
11808;BME280;5961;42.640;23.380;2022-11-20T06:41:58;93369.22;;;16.43;88.42
11808;BME280;5961;42.640;23.380;2022-11-20T06:44:24;93375.75;;;16.49;88.01
11808;BME280;5961;42.640;23.380;2022-11-20T06:46:51;93372.69;;;16.54;87.69
11808;BME280;5961;42.640;23.380;2022-11-20T06:49:17;93373.06;;;16.56;86.75
11808;BME280;5961;42.640;23.380;2022-11-20T06:51:44;93357.34;;;16.51;86.20
11808;BME280;5961;42.640;23.380;2022-11-20T06:54:11;93387.25;;;16.67;86.06
11808;BME280;5961;42.640;23.380;2022-11-20T06:56:38;93390.31;;;16.69;85.96
11808;BME280;5961;42.640;23.380;2022-11-20T06:59:07;93382.63;;;16.71;85.83
11808;BME280;5961;42.640;23.380;2022-11-20T07:01:33;93403.31;;;16.85;85.46
11808;BME280;5961;42.640;23.380;2022-11-20T07:04:00;93404.09;;;16.78;85.33
11808;BME280;5961;42.640;23.380;2022-11-20T07:06:28;93411.75;;;16.87;85.11
11808;BME280;5961;42.640;23.380;2022-11-20T07:08:55;93417.88;;;16.94;84.51
11808;BME280;5961;42.640;23.380;2022-11-20T07:11:21;93374.19;;;16.69;84.09
11808;BME280;5961;42.640;23.380;2022-11-20T07:13:48;93405.59;;;17.00;83.41
11808;BME280;5961;42.640;23.380;2022-11-20T07:16:16;93399.06;;;17.01;82.50
11808;BME280;5961;42.640;23.380;2022-11-20T07:18:43;93381.84;;;16.81;81.45
11808;BME280;5961;42.640;23.380;2022-11-20T07:21:10;93423.22;;;17.05;81.37
11808;BME280;5961;42.640;23.380;2022-11-20T07:23:37;93426.25;;;17.11;81.61
11808;BME280;5961;42.640;23.380;2022-11-20T07:26:04;93412.47;;;17.12;82.20
11808;BME280;5961;42.640;23.380;2022-11-20T07:28:32;93413.22;;;17.13;81.33
11808;BME280;5961;42.640;23.380;2022-11-20T07:30:58;93414.00;;;17.13;80.38
11808;BME280;5961;42.640;23.380;2022-11-20T07:33:26;93405.19;;;17.13;80.52
11808;BME280;5961;42.640;23.380;2022-11-20T07:35:53;93430.84;;;17.21;79.88
11808;BME280;5961;42.640;23.380;2022-11-20T07:38:20;93423.56;;;17.21;79.83
11808;BME280;5961;42.640;23.380;2022-11-20T07:40:47;93417.06;;;17.19;79.52
11808;BME280;5961;42.640;23.380;2022-11-20T07:43:14;93418.97;;;17.25;79.56
11808;BME280;5961;42.640;23.380;2022-11-20T07:45:40;93407.81;;;17.27;79.42
11808;BME280;5961;42.640;23.380;2022-11-20T07:48:07;93422.78;;;17.24;79.74
11808;BME280;5961;42.640;23.380;2022-11-20T07:50:35;93419.69;;;17.26;79.97
11808;BME280;5961;42.640;23.380;2022-11-20T07:53:03;93420.09;;;17.21;80.46
11808;BME280;5961;42.640;23.380;2022-11-20T07:55:30;93410.50;;;17.20;81.36
11808;BME280;5961;42.640;23.380;2022-11-20T07:57:57;93392.13;;;17.08;81.19
11808;BME280;5961;42.640;23.380;2022-11-20T08:00:25;93420.47;;;17.23;81.20
11808;BME280;5961;42.640;23.380;2022-11-20T08:02:52;93432.34;;;17.29;81.62
11808;BME280;5961;42.640;23.380;2022-11-20T08:05:19;93421.59;;;17.29;81.67
11808;BME280;5961;42.640;23.380;2022-11-20T08:07:47;93423.50;;;17.32;81.38
11808;BME280;5961;42.640;23.380;2022-11-20T08:10:15;93426.19;;;17.35;81.32
11808;BME280;5961;42.640;23.380;2022-11-20T08:12:46;93415.44;;;17.39;80.17
11808;BME280;5961;42.640;23.380;2022-11-20T08:15:30;93401.63;;;17.40;80.30
11808;BME280;5961;42.640;23.380;2022-11-20T08:18:02;93390.91;;;17.37;79.85
11808;BME280;5961;42.640;23.380;2022-11-20T08:20:28;93402.78;;;17.43;79.18
11808;BME280;5961;42.640;23.380;2022-11-20T08:23:00;93409.28;;;17.45;78.91
11808;BME280;5961;42.640;23.380;2022-11-20T08:25:28;93400.09;;;17.43;78.50
11808;BME280;5961;42.640;23.380;2022-11-20T08:27:57;93416.56;;;17.52;78.22
11808;BME280;5961;42.640;23.380;2022-11-20T08:30:23;93413.88;;;17.52;78.09
11808;BME280;5961;42.640;23.380;2022-11-20T08:32:50;93427.31;;;17.56;77.53
11808;BME280;5961;42.640;23.380;2022-11-20T08:35:17;93417.31;;;17.60;77.43
11808;BME280;5961;42.640;23.380;2022-11-20T08:37:46;93431.88;;;17.62;77.39
11808;BME280;5961;42.640;23.380;2022-11-20T08:40:14;93414.63;;;17.56;76.82
11808;BME280;5961;42.640;23.380;2022-11-20T08:42:46;93430.72;;;17.67;76.36
11808;BME280;5961;42.640;23.380;2022-11-20T08:45:13;93426.91;;;17.64;76.32
11808;BME280;5961;42.640;23.380;2022-11-20T08:47:39;93442.97;;;17.71;75.85
11808;BME280;5961;42.640;23.380;2022-11-20T08:50:07;93462.53;;;17.75;75.91
11808;BME280;5961;42.640;23.380;2022-11-20T08:52:34;93475.59;;;17.77;75.83
11808;BME280;5961;42.640;23.380;2022-11-20T08:55:01;93494.41;;;17.77;75.69
11808;BME280;5961;42.640;23.380;2022-11-20T08:57:31;93479.44;;;17.76;75.85
11808;BME280;5961;42.640;23.380;2022-11-20T08:59:58;93483.63;;;17.80;76.01
11808;BME280;5961;42.640;23.380;2022-11-20T09:02:24;93469.81;;;17.78;75.87
11808;BME280;5961;42.640;23.380;2022-11-20T09:04:51;93425.78;;;17.47;75.84
11808;BME280;5961;42.640;23.380;2022-11-20T09:07:18;93466.75;;;17.80;75.96
11808;BME280;5961;42.640;23.380;2022-11-20T09:09:45;93471.75;;;17.78;75.20
11808;BME280;5961;42.640;23.380;2022-11-20T09:12:13;93456.81;;;17.70;75.46
11808;BME280;5961;42.640;23.380;2022-11-20T09:14:41;93474.78;;;17.83;86.95
11808;BME280;5961;42.640;23.380;2022-11-20T09:17:09;93474.78;;;17.83;81.96
11808;BME280;5961;42.640;23.380;2022-11-20T09:19:38;93472.84;;;17.87;82.83
11808;BME280;5961;42.640;23.380;2022-11-20T09:22:06;93463.66;;;17.88;81.93
11808;BME280;5961;42.640;23.380;2022-11-20T09:24:32;93466.69;;;17.94;81.86
11808;BME280;5961;42.640;23.380;2022-11-20T09:27:02;93479.72;;;17.95;80.74
11808;BME280;5961;42.640;23.380;2022-11-20T09:29:29;93473.56;;;17.98;81.63
11808;BME280;5961;42.640;23.380;2022-11-20T09:31:57;93451.28;;;18.01;82.06
11808;BME280;5961;42.640;23.380;2022-11-20T09:34:23;93455.50;;;17.99;82.04
11808;BME280;5961;42.640;23.380;2022-11-20T09:36:50;93397.34;;;17.61;81.61
11808;BME280;5961;42.640;23.380;2022-11-20T09:39:17;93452.84;;;17.95;80.77
11808;BME280;5961;42.640;23.380;2022-11-20T09:42:05;93440.94;;;17.93;81.71
11808;BME280;5961;42.640;23.380;2022-11-20T09:44:49;93432.97;;;17.82;80.47
11808;BME280;5961;42.640;23.380;2022-11-20T09:47:33;93441.38;;;17.88;81.72
11808;BME280;5961;42.640;23.380;2022-11-20T09:50:16;93443.31;;;17.84;82.14
11808;BME280;5961;42.640;23.380;2022-11-20T09:52:50;93431.41;;;17.85;82.77
11808;BME280;5961;42.640;23.380;2022-11-20T09:55:21;93423.75;;;17.80;83.87
11808;BME280;5961;42.640;23.380;2022-11-20T09:57:51;93430.28;;;17.75;85.51
11808;BME280;5961;42.640;23.380;2022-11-20T10:00:18;93419.16;;;17.77;86.20
11808;BME280;5961;42.640;23.380;2022-11-20T10:02:52;93395.38;;;17.68;85.18
11808;BME280;5961;42.640;23.380;2022-11-20T10:05:26;93395.78;;;17.70;84.62
11808;BME280;5961;42.640;23.380;2022-11-20T10:08:03;93417.66;;;17.65;84.43
11808;BME280;5961;42.640;23.380;2022-11-20T10:10:41;93432.66;;;17.59;84.48
11808;BME280;5961;42.640;23.380;2022-11-20T10:13:20;93411.19;;;17.56;84.91
11808;BME280;5961;42.640;23.380;2022-11-20T10:16:00;93387.00;;;17.52;84.33
11808;BME280;5961;42.640;23.380;2022-11-20T10:18:42;93403.13;;;17.48;85.54
11808;BME280;5961;42.640;23.380;2022-11-20T10:21:23;93393.94;;;17.46;86.23
11808;BME280;5961;42.640;23.380;2022-11-20T10:24:19;93390.84;;;17.44;86.40
11808;BME280;5961;42.640;23.380;2022-11-20T10:26:57;93378.59;;;17.43;86.20
11808;BME280;5961;42.640;23.380;2022-11-20T10:29:29;93397.00;;;17.44;87.38
11808;BME280;5961;42.640;23.380;2022-11-20T10:32:01;93384.34;;;17.45;86.64
11808;BME280;5961;42.640;23.380;2022-11-20T10:34:33;93385.88;;;17.49;87.78
11808;BME280;5961;42.640;23.380;2022-11-20T10:37:05;93388.50;;;17.53;86.55
11808;BME280;5961;42.640;23.380;2022-11-20T10:39:41;93401.19;;;17.56;85.99
11808;BME280;5961;42.640;23.380;2022-11-20T10:42:11;93403.88;;;17.56;86.12
11808;BME280;5961;42.640;23.380;2022-11-20T10:44:42;93400.03;;;17.61;87.54
11808;BME280;5961;42.640;23.380;2022-11-20T10:47:31;93399.28;;;17.57;90.39
11808;BME280;5961;42.640;23.380;2022-11-20T10:50:03;93382.78;;;17.47;91.18
11808;BME280;5961;42.640;23.380;2022-11-20T10:52:37;93398.13;;;17.50;91.24
11808;BME280;5961;42.640;23.380;2022-11-20T10:55:13;93423.13;;;17.37;92.87
11808;BME280;5961;42.640;23.380;2022-11-20T10:57:52;93428.16;;;17.28;93.34
11808;BME280;5961;42.640;23.380;2022-11-20T11:00:21;93398.22;;;17.26;93.90
11808;BME280;5961;42.640;23.380;2022-11-20T11:02:49;93401.72;;;17.12;94.79
11808;BME280;5961;42.640;23.380;2022-11-20T11:05:33;93431.66;;;17.07;95.00
11808;BME280;5961;42.640;23.380;2022-11-20T11:08:03;93435.50;;;17.06;94.63
11808;BME280;5961;42.640;23.380;2022-11-20T11:10:37;93451.22;;;17.00;95.19
11808;BME280;5961;42.640;23.380;2022-11-20T11:13:07;93450.81;;;16.98;95.40
11808;BME280;5961;42.640;23.380;2022-11-20T11:15:38;93459.28;;;16.97;96.56
11808;BME280;5961;42.640;23.380;2022-11-20T11:18:06;93470.78;;;16.94;96.56
11808;BME280;5961;42.640;23.380;2022-11-20T11:20:36;93492.63;;;16.92;96.38
11808;BME280;5961;42.640;23.380;2022-11-20T11:23:03;93500.31;;;16.90;97.98
11808;BME280;5961;42.640;23.380;2022-11-20T11:25:32;93470.44;;;16.71;99.54
11808;BME280;5961;42.640;23.380;2022-11-20T11:28:03;93450.47;;;16.68;95.65
11808;BME280;5961;42.640;23.380;2022-11-20T11:30:41;93458.91;;;16.56;92.40
11808;BME280;5961;42.640;23.380;2022-11-20T11:33:11;93477.63;;;16.38;74.91
11808;BME280;5961;42.640;23.380;2022-11-20T11:35:44;93492.16;;;16.23;82.52
11808;BME280;5961;42.640;23.380;2022-11-20T11:38:14;93518.16;;;16.02;83.93
11808;BME280;5961;42.640;23.380;2022-11-20T11:40:43;93505.00;;;15.68;82.51
11808;BME280;5961;42.640;23.380;2022-11-20T11:43:19;93467.25;;;15.19;82.24
11808;BME280;5961;42.640;23.380;2022-11-20T11:46:21;93476.09;;;15.26;83.98
11808;BME280;5961;42.640;23.380;2022-11-20T11:48:55;93474.13;;;15.16;86.40
11808;BME280;5961;42.640;23.380;2022-11-20T11:51:26;93471.34;;;14.99;86.30
11808;BME280;5961;42.640;23.380;2022-11-20T11:53:56;93471.59;;;14.79;87.73
11808;BME280;5961;42.640;23.380;2022-11-20T11:56:25;93462.09;;;14.86;89.49
11808;BME280;5961;42.640;23.380;2022-11-20T11:58:56;93451.69;;;14.73;88.94
11808;BME280;5961;42.640;23.380;2022-11-20T12:01:31;93472.34;;;14.76;85.10
11808;BME280;5961;42.640;23.380;2022-11-20T12:04:04;93452.47;;;14.77;86.34
11808;BME280;5961;42.640;23.380;2022-11-20T12:06:36;93413.44;;;14.69;85.96
11808;BME280;5961;42.640;23.380;2022-11-20T12:09:08;93433.34;;;14.75;86.26
11808;BME280;5961;42.640;23.380;2022-11-20T12:11:40;93455.31;;;14.51;85.35
11808;BME280;5961;42.640;23.380;2022-11-20T12:14:14;93518.41;;;14.56;85.53
11808;BME280;5961;42.640;23.380;2022-11-20T12:16:44;93432.81;;;14.52;87.96
11808;BME280;5961;42.640;23.380;2022-11-20T12:19:12;93464.03;;;14.41;89.36
11808;BME280;5961;42.640;23.380;2022-11-20T12:21:49;93475.38;;;14.31;89.14
11808;BME280;5961;42.640;23.380;2022-11-20T12:24:49;93506.22;;;14.21;88.99
11808;BME280;5961;42.640;23.380;2022-11-20T12:27:37;93470.94;;;14.09;90.92
11808;BME280;5961;42.640;23.380;2022-11-20T12:30:08;93481.16;;;14.00;89.02
11808;BME280;5961;42.640;23.380;2022-11-20T12:32:54;93488.41;;;13.99;91.63
11808;BME280;5961;42.640;23.380;2022-11-20T12:35:41;93462.72;;;13.88;88.96
11808;BME280;5961;42.640;23.380;2022-11-20T12:38:37;93465.81;;;13.90;91.73
11808;BME280;5961;42.640;23.380;2022-11-20T12:41:11;93430.25;;;13.82;90.55
11808;BME280;5961;42.640;23.380;2022-11-20T12:44:10;93364.63;;;13.85;90.39
11808;BME280;5961;42.640;23.380;2022-11-20T12:47:12;93316.41;;;13.67;87.29
11808;BME280;5961;42.640;23.380;2022-11-20T12:49:48;93350.22;;;13.93;89.25
11808;BME280;5961;42.640;23.380;2022-11-20T12:52:26;93319.22;;;13.85;94.37
11808;BME280;5961;42.640;23.380;2022-11-20T12:55:20;93345.06;;;14.17;95.44
11808;BME280;5961;42.640;23.380;2022-11-20T12:57:54;93340.56;;;14.28;95.59
11808;BME280;5961;42.640;23.380;2022-11-20T13:00:22;93330.34;;;14.38;96.39
11808;BME280;5961;42.640;23.380;2022-11-20T13:03:14;93316.22;;;14.37;98.08
11808;BME280;5961;42.640;23.380;2022-11-20T13:05:52;93318.50;;;14.35;98.19
11808;BME280;5961;42.640;23.380;2022-11-20T13:08:23;93317.34;;;14.36;99.15
11808;BME280;5961;42.640;23.380;2022-11-20T13:10:57;93298.63;;;14.36;98.24
11808;BME280;5961;42.640;23.380;2022-11-20T13:13:33;93306.31;;;14.41;96.67